Normal, IL

4:15 PM CDT on March 23, 2017 (GMT -0500)
Den2 | | Change Station

Elev 843 ft 40.53 °N, 88.99 °W | Updated 6 seconds ago

Overcast
Overcast
45.9 °F
Feels Like 43 °F
N
6.5
Wind Variable Wind from ESE
Gusts 7.4 mph

Today
High -- | Low -- °F
--% Chance of Precip.
Yesterday
High -- | Low -- °F
Precip. -- in
Pressure 30.25 in
Visibility 10.0 miles
Clouds Overcast 2900 ft
Windchill 43 °F
Dew Point 24 °F
Humidity 42%
Rainfall 0.00 in
Snow Depth Not available.
6:53 AM 7:11 PM
Waning Crescent, 20% visible
METAR KBMI 232056Z 16012KT 10SM OVC029 07/M02 A3016 RMK AO2 RAB04E17 SLP243 P0000 60000 T00721022 56037
Pressure 30.25 in
Visibility 10.0 miles
Clouds Overcast 2900 ft
Windchill 43 °F
Dew Point 24 °F
Humidity 42%
Rainfall 0.00 in
Snow Depth Not available.
6:53 AM 7:11 PM
Waning Crescent, 20% visible
METAR KBMI 232056Z 16012KT 10SM OVC029 07/M02 A3016 RMK AO2 RAB04E17 SLP243 P0000 60000 T00721022 56037

Get Severe Weather Alerts

Thanks for signing up!

Be on the lookout for a verification email in your inbox.

You'll start receiving the daily forecast at 8 AM.

×

10-Day Weather Forecast

Almanac

Astronomy

Mar. 23, 2017 Rise Set
Actual Time
Civil Twilight
Nautical Twilight
Astronomical Twilight
Moon
Length of Visible Light
Length of Day
Tomorrow will be .
, % of the Moon is Illuminated

Today's Extremes

State Highs State Lows

Community

WunderPhotos

Upload Photos

1,962,540 photos uploaded!

WunderBlog® & News

Nearby

Air Quality

  Air Quality AQ Index Pollutant
Not available.

Snow Depth

Station Depth Elevation

Earthquake Activity

City Distance Mag. Time & Date
Minimum magnitude displayed is 2.5.

Earthquake Activity

City Distance Mag. Time & Date
Minimum magnitude displayed is 2.5.

Coastal Water Temperatures

Place Temperature

Stations

Nearby Weather Stations

Station Location Temp. Windchill Dew Point Humidity Wind Precip. Elev Updated Type
                   

Watches & Warnings

There are currently no watches in effect.